Time;durP1;ratioP1;P1;durP2;ratioP2;P2;SDS_P1;SDS_P2;PMS_P1;PMS_P2;Temp;Humidity;BMP_temperature;BMP_pressure;BME280_temperature;BME280_humidity;BME280_pressure;Samples;Min_cycle;Max_cycle;Signal;HPM_P1;HPM_P2
2021/07/17 00:00:40;;;;;;;27.58;14.68;;;;;;;19.76;88.80;100609.66;5085361;28;20067;-76
2021/07/17 00:03:06;;;;;;;39.30;13.73;;;;;;;19.71;88.99;100606.69;5076570;28;20041;-76
2021/07/17 00:05:36;;;;;;;33.83;13.57;;;;;;;19.67;89.00;100608.13;5084060;28;20060;-77
2021/07/17 00:08:04;;;;;;;37.65;13.10;;;;;;;19.81;88.14;100615.38;5089922;28;20097;-76
2021/07/17 00:10:36;;;;;;;29.02;12.77;;;;;;;19.56;89.45;100613.06;5069929;28;20079;-76
2021/07/17 00:13:02;;;;;;;27.08;13.48;;;;;;;19.73;88.28;100612.78;5078851;28;20056;-76
2021/07/17 00:15:29;;;;;;;30.13;12.63;;;;;;;19.55;89.22;100613.25;5076836;28;20102;-75
2021/07/17 00:17:56;;;;;;;33.95;14.20;;;;;;;19.77;87.76;100616.78;5087809;28;20048;-77
2021/07/17 00:20:22;;;;;;;30.20;12.55;;;;;;;19.68;88.46;100616.09;5084537;28;20124;-76
2021/07/17 00:22:50;;;;;;;24.20;11.75;;;;;;;19.76;87.86;100618.69;5076072;28;20124;-76
2021/07/17 00:25:19;;;;;;;28.42;11.77;;;;;;;19.70;88.30;100618.63;5078769;28;20114;-76
2021/07/17 00:27:47;;;;;;;27.67;12.85;;;;;;;19.78;87.47;100622.06;5085638;28;20052;-77
2021/07/17 00:30:15;;;;;;;27.52;12.63;;;;;;;19.67;88.16;100625.31;5076435;28;20055;-76
2021/07/17 00:32:41;;;;;;;29.45;12.18;;;;;;;19.74;87.58;100626.19;5073337;28;20109;-79
2021/07/17 00:35:09;;;;;;;26.00;12.02;;;;;;;19.71;87.52;100613.00;5082164;28;20479;-76
2021/07/17 00:37:35;;;;;;;29.38;12.45;;;;;;;19.69;87.42;100616.94;5069496;28;20096;-76
2021/07/17 00:40:04;;;;;;;21.95;11.05;;;;;;;19.53;88.01;100618.88;5070009;28;20503;-77
2021/07/17 00:42:31;;;;;;;28.45;10.77;;;;;;;19.48;88.34;100615.00;5075992;28;20094;-77
2021/07/17 00:44:57;;;;;;;26.02;11.18;;;;;;;19.67;87.02;100613.59;5077085;28;20050;-76
2021/07/17 00:47:24;;;;;;;26.73;10.60;;;;;;;19.67;86.88;100613.59;5079706;28;20057;-77
2021/07/17 00:49:51;;;;;;;28.30;11.05;;;;;;;19.60;87.27;100607.22;5089977;28;20051;-76
2021/07/17 00:52:17;;;;;;;38.08;11.18;;;;;;;19.52;87.57;100611.69;5080315;28;20044;-77
2021/07/17 00:54:44;;;;;;;26.80;10.80;;;;;;;19.54;87.37;100626.00;5089242;28;20450;-75
2021/07/17 00:57:13;;;;;;;30.10;10.27;;;;;;;19.55;87.17;100624.97;5078080;28;20098;-76
2021/07/17 00:59:42;;;;;;;30.15;10.63;;;;;;;19.45;87.35;100632.59;5078867;28;20036;-75
2021/07/17 01:02:10;;;;;;;26.85;10.85;;;;;;;19.45;87.46;100631.75;5074613;28;20044;-76
2021/07/17 01:04:37;;;;;;;25.58;11.65;;;;;;;19.49;87.59;100636.59;5078948;28;20048;-75
2021/07/17 01:07:04;;;;;;;32.70;11.20;;;;;;;19.33;88.20;100636.84;5082220;28;20040;-76
2021/07/17 01:09:30;;;;;;;29.63;10.57;;;;;;;19.39;88.54;100635.22;5075967;28;20045;-75
2021/07/17 01:11:57;;;;;;;36.80;12.85;;;;;;;19.29;91.07;100639.09;5077869;28;20043;-76
2021/07/17 01:14:26;;;;;;;24.90;12.18;;;;;;;18.96;92.84;100638.69;5083383;28;20044;-76
2021/07/17 01:16:53;;;;;;;32.28;12.68;;;;;;;18.80;93.87;100636.16;5086798;28;20472;-77
2021/07/17 01:19:23;;;;;;;40.88;13.85;;;;;;;18.72;94.30;100639.00;5083236;28;20267;-75
2021/07/17 01:21:51;;;;;;;41.83;15.40;;;;;;;18.77;94.44;100639.25;5068553;28;20381;-75
2021/07/17 01:24:18;;;;;;;27.02;12.73;;;;;;;18.59;94.72;100630.63;5077606;28;20545;-75
2021/07/17 01:26:44;;;;;;;36.03;14.45;;;;;;;18.54;95.08;100635.75;5077434;28;20044;-75
2021/07/17 01:29:10;;;;;;;35.03;14.05;;;;;;;18.53;95.60;100634.91;5073369;28;20044;-75
2021/07/17 01:31:38;;;;;;;32.50;13.02;;;;;;;18.52;95.25;100630.50;5082675;28;20048;-75
2021/07/17 01:34:04;;;;;;;29.92;14.00;;;;;;;18.59;95.26;100636.88;5083917;28;20086;-75
2021/07/17 01:36:31;;;;;;;32.50;12.77;;;;;;;18.51;95.01;100625.25;5083031;28;20051;-76
2021/07/17 01:38:58;;;;;;;32.22;14.65;;;;;;;18.52;95.06;100624.22;5075904;28;20109;-75
2021/07/17 01:41:25;;;;;;;31.65;14.35;;;;;;;18.44;95.33;100627.84;5083969;28;20074;-76
2021/07/17 01:46:19;;;;;;;35.25;13.75;;;;;;;18.54;95.32;100622.16;5021810;28;20049;-62
2021/07/17 01:48:50;;;;;;;41.13;15.70;;;;;;;18.46;95.83;100616.78;5041206;28;20515;-62
2021/07/17 01:51:17;;;;;;;39.33;14.48;;;;;;;18.41;95.77;100611.94;5030056;28;20050;-60
2021/07/17 01:53:43;;;;;;;44.25;15.90;;;;;;;18.51;95.36;100607.06;5036027;28;20077;-64
2021/07/17 01:56:11;;;;;;;38.58;16.05;;;;;;;18.51;95.70;100614.38;5029805;28;20085;-62
2021/07/17 01:58:37;;;;;;;40.15;15.13;;;;;;;18.53;95.42;100621.31;5047862;28;20392;-64
2021/07/17 02:01:03;;;;;;;40.60;14.10;;;;;;;18.57;95.05;100621.78;5037674;28;20497;-61
2021/07/17 02:03:30;;;;;;;34.10;14.10;;;;;;;18.49;94.76;100630.03;5035972;28;20046;-61
2021/07/17 02:05:57;;;;;;;41.22;15.05;;;;;;;18.48;94.76;100620.19;5030183;28;20046;-62
2021/07/17 02:08:24;;;;;;;36.45;14.88;;;;;;;18.49;94.98;100624.59;5037622;28;20143;-60
2021/07/17 02:10:50;;;;;;;35.63;15.27;;;;;;;18.48;95.15;100622.91;5030147;28;20073;-61
2021/07/17 02:13:18;;;;;;;45.22;14.60;;;;;;;18.39;95.32;100624.88;5046003;28;20041;-64
2021/07/17 02:15:47;;;;;;;39.30;14.50;;;;;;;18.44;95.43;100633.28;5040506;28;20048;-62
2021/07/17 02:18:14;;;;;;;38.35;14.43;;;;;;;18.45;94.71;100620.56;5026388;28;20344;-60
2021/07/17 02:20:42;;;;;;;35.67;14.90;;;;;;;18.43;95.12;100620.75;5029956;28;20410;-68
2021/07/17 02:23:08;;;;;;;37.78;14.30;;;;;;;18.36;95.32;100614.38;5029658;28;20077;-65
2021/07/17 02:25:35;;;;;;;35.13;12.93;;;;;;;18.24;95.61;100616.69;5032522;28;20053;-63
2021/07/17 02:28:01;;;;;;;34.78;14.18;;;;;;;18.35;95.81;100624.41;5030925;28;20041;-64
2021/07/17 02:30:30;;;;;;;39.63;13.10;;;;;;;18.27;95.59;100613.59;5029812;28;20053;-62
2021/07/17 02:32:57;;;;;;;35.40;12.05;;;;;;;18.25;95.40;100606.69;5038193;28;20099;-64
2021/07/17 02:35:23;;;;;;;31.50;11.77;;;;;;;18.15;95.86;100601.50;5030760;28;20454;-64
2021/07/17 02:37:49;;;;;;;41.78;13.63;;;;;;;18.22;95.35;100602.44;5036142;28;20108;-64
2021/07/17 02:40:16;;;;;;;48.33;13.75;;;;;;;18.16;95.68;100594.19;5027777;28;20073;-64
2021/07/17 02:42:42;;;;;;;34.03;13.32;;;;;;;18.11;95.85;100586.59;5039646;28;20045;-62
2021/07/17 02:45:11;;;;;;;42.88;12.75;;;;;;;18.03;95.65;100584.81;5025596;28;20065;-66
2021/07/17 02:47:39;;;;;;;33.83;13.68;;;;;;;18.08;95.78;100586.97;5029941;28;20045;-62
2021/07/17 02:50:07;;;;;;;40.88;13.77;;;;;;;18.08;95.34;100589.69;5034601;28;20033;-66
2021/07/17 02:52:34;;;;;;;36.80;12.25;;;;;;;17.98;95.85;100602.66;5034770;28;20417;-66
2021/07/17 02:55:00;;;;;;;37.97;13.77;;;;;;;18.07;95.38;100590.72;5048359;28;20041;-63
2021/07/17 02:57:27;;;;;;;32.90;13.40;;;;;;;17.99;95.36;100590.78;5047177;28;20103;-63
2021/07/17 02:59:53;;;;;;;38.85;13.35;;;;;;;18.01;95.76;100595.03;5049779;28;20045;-60
2021/07/17 03:02:20;;;;;;;36.20;13.70;;;;;;;18.00;95.68;100585.19;5039757;28;20119;-62
2021/07/17 03:04:47;;;;;;;32.28;12.25;;;;;;;17.87;95.91;100597.69;5027016;28;20136;-64
2021/07/17 03:07:14;;;;;;;38.85;12.75;;;;;;;17.92;95.56;100595.28;5028025;28;20044;-61
2021/07/17 03:09:40;;;;;;;41.03;13.15;;;;;;;17.93;94.96;100597.81;5042420;28;20048;-62
2021/07/17 03:12:07;;;;;;;44.03;12.70;;;;;;;17.96;94.77;100588.44;5044576;28;20068;-63
2021/07/17 03:14:34;;;;;;;36.78;13.57;;;;;;;17.82;95.46;100604.50;5031108;28;20049;-63
2021/07/17 03:17:00;;;;;;;33.72;11.93;;;;;;;17.75;95.62;100597.25;5046802;28;20095;-60
2021/07/17 03:19:27;;;;;;;43.75;14.25;;;;;;;17.73;95.92;100607.47;5031309;28;20484;-61
2021/07/17 03:21:54;;;;;;;39.53;13.13;;;;;;;17.80;95.55;100614.72;5042933;28;20041;-63
2021/07/17 03:24:21;;;;;;;47.83;14.63;;;;;;;17.78;95.17;100613.22;5038302;28;20119;-62
2021/07/17 03:26:47;;;;;;;44.05;14.40;;;;;;;17.73;95.58;100605.59;5029530;28;20049;-63
2021/07/17 03:29:14;;;;;;;41.85;14.27;;;;;;;17.68;95.87;100613.41;5036780;28;20045;-62
2021/07/17 03:31:40;;;;;;;40.35;13.07;;;;;;;17.67;96.19;100616.31;5040939;28;20049;-66
2021/07/17 03:34:07;;;;;;;42.97;14.85;;;;;;;17.73;95.93;100612.91;5028774;28;20416;-64
2021/07/17 03:36:33;;;;;;;35.55;14.23;;;;;;;17.70;96.25;100613.25;5044106;28;20389;-66
2021/07/17 03:39:01;;;;;;;46.97;15.95;;;;;;;17.77;95.52;100606.94;5039654;28;20094;-61
2021/07/17 03:41:27;;;;;;;36.05;12.68;;;;;;;17.70;95.50;100613.25;5034069;28;20053;-63
2021/07/17 03:43:53;;;;;;;33.50;14.02;;;;;;;17.67;96.01;100609.00;5043198;28;20121;-60
2021/07/17 03:46:20;;;;;;;34.28;12.50;;;;;;;17.69;95.93;100598.84;5047948;28;20467;-61
2021/07/17 03:48:46;;;;;;;41.28;13.25;;;;;;;17.77;95.30;100600.66;5037166;28;20080;-64
2021/07/17 03:51:12;;;;;;;37.72;13.52;;;;;;;17.67;95.61;100605.47;5042374;28;20099;-63
2021/07/17 03:53:39;;;;;;;30.67;13.05;;;;;;;17.73;95.08;100619.16;5046547;28;20095;-62
2021/07/17 03:56:07;;;;;;;34.33;13.02;;;;;;;17.62;94.82;100605.97;5048264;28;20045;-63
2021/07/17 03:58:33;;;;;;;29.58;12.90;;;;;;;17.64;95.15;100609.38;5045547;28;20653;-62
2021/07/17 04:01:00;;;;;;;34.72;12.20;;;;;;;17.75;94.83;100616.25;5039284;28;20061;-64
2021/07/17 04:03:26;;;;;;;35.85;14.00;;;;;;;17.79;93.83;100618.44;5035187;28;20087;-64
2021/07/17 04:05:53;;;;;;;33.10;12.88;;;;;;;17.69;93.95;100609.72;5039028;28;20050;-66
2021/07/17 04:08:19;;;;;;;33.58;13.68;;;;;;;17.70;94.09;100611.41;5046788;28;20048;-63
2021/07/17 04:10:45;;;;;;;40.47;13.38;;;;;;;17.69;94.25;100611.59;5042462;28;20049;-60
2021/07/17 04:13:13;;;;;;;43.97;13.93;;;;;;;17.82;93.55;100614.53;5037773;28;20514;-63
2021/07/17 04:15:39;;;;;;;37.65;12.35;;;;;;;17.76;93.73;100617.97;5047436;28;20053;-62
2021/07/17 04:18:06;;;;;;;39.75;13.55;;;;;;;17.89;92.80;100617.38;5040123;28;20122;-61
2021/07/17 04:20:32;;;;;;;29.70;12.63;;;;;;;17.81;92.74;100605.53;5047437;28;20084;-62
2021/07/17 04:22:59;;;;;;;37.00;12.15;;;;;;;17.82;92.93;100609.09;5034180;28;20135;-64
2021/07/17 04:25:25;;;;;;;39.90;12.77;;;;;;;17.86;93.32;100618.56;5034806;28;20578;-64
2021/07/17 04:27:51;;;;;;;32.22;11.73;;;;;;;17.88;93.03;100608.38;5031569;28;20090;-65
2021/07/17 04:30:19;;;;;;;40.45;13.90;;;;;;;17.84;93.59;100615.19;5045762;28;20045;-65
2021/07/17 04:32:45;;;;;;;33.83;13.10;;;;;;;17.95;93.45;100620.19;5047829;28;20092;-62
2021/07/17 04:35:12;;;;;;;35.33;12.80;;;;;;;17.94;92.99;100617.66;5044647;28;20479;-66
2021/07/17 04:37:38;;;;;;;38.10;13.88;;;;;;;17.98;92.71;100635.25;5025986;28;20055;-64
2021/07/17 04:40:06;;;;;;;42.35;12.82;;;;;;;17.95;92.95;100641.06;5041546;28;20045;-64
2021/07/17 04:42:33;;;;;;;33.05;13.93;;;;;;;18.03;92.26;100632.84;5036667;28;20041;-64
2021/07/17 04:44:59;;;;;;;32.72;12.93;;;;;;;17.95;92.26;100633.75;5047730;28;20045;-63
2021/07/17 04:47:27;;;;;;;39.17;13.55;;;;;;;18.00;91.73;100635.94;5036342;28;20045;-61
2021/07/17 04:49:53;;;;;;;32.45;14.13;;;;;;;17.99;92.25;100643.22;5047639;28;20110;-63
2021/07/17 04:52:19;;;;;;;34.35;12.85;;;;;;;17.93;92.65;100635.81;5045080;28;20045;-64
2021/07/17 04:54:46;;;;;;;29.05;12.77;;;;;;;17.97;92.33;100639.84;5035963;28;20454;-62
2021/07/17 04:57:12;;;;;;;35.72;15.55;;;;;;;17.99;92.53;100634.22;5037993;28;20122;-63
2021/07/17 04:59:38;;;;;;;40.95;14.52;;;;;;;18.03;92.40;100643.72;5028833;28;20045;-65
2021/07/17 05:02:04;;;;;;;33.08;14.00;;;;;;;18.13;91.77;100636.16;5037562;28;20705;-62
2021/07/17 05:04:32;;;;;;;41.67;15.30;;;;;;;18.20;91.74;100636.25;5042720;28;20088;-63
2021/07/17 05:06:58;;;;;;;36.92;14.55;;;;;;;18.25;91.75;100633.84;5035590;28;20053;-64
2021/07/17 05:09:25;;;;;;;43.88;16.33;;;;;;;18.26;91.54;100625.50;5047676;28;20175;-62
2021/07/17 05:11:51;;;;;;;41.85;15.27;;;;;;;18.24;91.83;100621.28;5029447;28;20099;-63
2021/07/17 05:14:17;;;;;;;40.88;14.20;;;;;;;18.25;91.19;100628.41;5045764;28;20072;-62
2021/07/17 05:16:44;;;;;;;46.20;16.17;;;;;;;18.23;91.45;100642.19;5034288;28;20110;-65
2021/07/17 05:19:10;;;;;;;45.60;16.10;;;;;;;18.23;90.94;100652.19;5036412;28;20493;-64
2021/07/17 05:21:38;;;;;;;44.25;15.23;;;;;;;18.17;90.93;100640.19;5042870;28;20127;-62
2021/07/17 05:24:05;;;;;;;36.25;15.75;;;;;;;18.18;91.75;100644.59;5035445;28;20451;-64
2021/07/17 05:26:31;;;;;;;39.38;15.13;;;;;;;18.18;91.80;100654.63;5047327;28;20053;-65
2021/07/17 05:28:57;;;;;;;36.88;16.25;;;;;;;18.22;91.27;100640.47;5041816;28;20111;-63
2021/07/17 05:31:24;;;;;;;34.35;14.07;;;;;;;18.15;91.95;100634.09;5032630;28;20053;-64
2021/07/17 05:33:50;;;;;;;41.40;16.38;;;;;;;18.19;91.43;100640.00;5045365;28;20463;-63
2021/07/17 05:36:17;;;;;;;45.78;15.82;;;;;;;18.11;91.63;100644.50;5038412;28;20045;-63
2021/07/17 05:38:44;;;;;;;41.28;16.98;;;;;;;18.15;91.61;100639.53;5046371;28;20044;-63
2021/07/17 05:41:10;;;;;;;43.38;17.80;;;;;;;18.22;91.40;100640.47;5038614;28;20539;-64
2021/07/17 05:43:37;;;;;;;45.53;16.13;;;;;;;18.26;91.01;100636.38;5041826;28;20080;-65
2021/07/17 05:46:03;;;;;;;43.55;17.13;;;;;;;18.23;90.87;100639.47;5039029;28;20045;-63
2021/07/17 05:48:30;;;;;;;40.08;16.38;;;;;;;18.18;91.46;100647.31;5038584;28;20083;-63
2021/07/17 05:50:56;;;;;;;41.75;18.45;;;;;;;18.16;91.61;100649.38;5037217;28;20289;-62
2021/07/17 05:53:22;;;;;;;47.42;18.73;;;;;;;18.18;92.06;100649.19;5044897;28;20049;-62
2021/07/17 05:55:50;;;;;;;67.70;21.58;;;;;;;18.23;91.53;100655.78;5047333;28;20173;-67
2021/07/17 05:58:16;;;;;;;45.83;17.63;;;;;;;18.34;91.26;100649.00;5029285;28;20244;-62
2021/07/17 06:00:44;;;;;;;42.88;16.40;;;;;;;18.31;91.60;100657.53;5043394;28;20075;-66
2021/07/17 06:03:11;;;;;;;41.35;17.20;;;;;;;18.64;90.04;100649.94;5042959;28;20045;-62
2021/07/17 06:05:37;;;;;;;41.08;16.23;;;;;;;18.79;90.61;100641.78;5036615;28;20456;-63
2021/07/17 06:08:04;;;;;;;52.13;18.75;;;;;;;18.99;90.03;100651.06;5030972;28;20200;-65
2021/07/17 06:10:30;;;;;;;45.17;19.33;;;;;;;19.07;88.28;100645.53;5040934;28;20497;-62
2021/07/17 06:12:58;;;;;;;39.03;17.80;;;;;;;19.04;88.35;100650.47;5041886;28;20044;-63
2021/07/17 06:15:25;;;;;;;41.92;17.38;;;;;;;18.95;89.13;100668.81;5035602;28;20041;-63
2021/07/17 06:17:53;;;;;;;47.95;18.30;;;;;;;18.95;89.07;100658.75;5050369;28;20041;-63
2021/07/17 06:20:19;;;;;;;38.53;17.70;;;;;;;19.07;89.76;100661.00;5027634;28;20057;-64
2021/07/17 06:22:46;;;;;;;44.90;19.05;;;;;;;19.15;89.37;100669.03;5036604;28;20497;-62
2021/07/17 06:25:12;;;;;;;38.30;17.70;;;;;;;19.27;88.46;100667.53;5014629;28;20305;-64
2021/07/17 06:27:39;;;;;;;52.97;19.75;;;;;;;19.29;88.27;100671.75;5033776;28;20060;-64
2021/07/17 06:30:08;;;;;;;45.40;19.52;;;;;;;19.20;87.95;100674.78;5034398;28;62951;-64
2021/07/17 06:33:16;;;;;;;;;;;;;;;19.11;88.29;100681.34;5031929;27;20912;-64
2021/07/17 06:35:42;;;;;;;48.45;19.02;;;;;;;19.07;88.50;100685.50;5016825;28;65942;-64
2021/07/17 06:38:08;;;;;;;54.42;18.83;;;;;;;19.08;88.94;100682.56;5003616;28;20439;-63
2021/07/17 06:40:35;;;;;;;39.50;18.15;;;;;;;19.08;89.31;100682.56;5004436;28;20471;-63
2021/07/17 06:43:01;;;;;;;36.75;17.20;;;;;;;19.23;89.53;100685.28;5008042;28;20057;-62
2021/07/17 06:45:27;;;;;;;53.33;20.05;;;;;;;19.34;88.36;100689.41;5003031;28;20054;-64
2021/07/17 06:47:54;;;;;;;47.42;19.05;;;;;;;19.40;88.78;100684.00;5013522;28;20520;-65
2021/07/17 06:50:23;;;;;;;50.70;19.00;;;;;;;19.50;89.61;100692.72;5013988;28;20077;-64
2021/07/17 06:52:50;;;;;;;51.55;20.15;;;;;;;19.45;87.77;100686.19;5000508;28;20511;-62
2021/07/17 06:55:16;;;;;;;39.47;17.52;;;;;;;19.36;89.25;100692.75;5005502;28;20512;-67
2021/07/17 06:57:45;;;;;;;44.67;20.33;;;;;;;19.47;86.99;100684.94;5006324;28;20504;-65
2021/07/17 07:00:13;;;;;;;44.25;19.15;;;;;;;19.48;87.04;100678.47;5007041;28;20085;-65
2021/07/17 07:02:39;;;;;;;56.08;22.38;;;;;;;19.41;88.44;100685.69;5006133;28;20042;-63
2021/07/17 07:05:07;;;;;;;51.92;20.27;;;;;;;19.59;87.70;100687.22;4988364;28;20448;-65
2021/07/17 07:07:35;;;;;;;40.17;16.63;;;;;;;19.72;88.52;100688.19;5005982;28;20101;-64
2021/07/17 07:10:05;;;;;;;46.08;19.40;;;;;;;19.89;86.57;100685.22;5006004;28;20060;-64
2021/07/17 07:12:31;;;;;;;43.95;18.23;;;;;;;19.91;87.01;100692.19;5006018;28;20385;-63
2021/07/17 07:14:57;;;;;;;51.60;20.63;;;;;;;19.89;87.20;100699.69;5005931;28;20050;-61
2021/07/17 07:17:24;;;;;;;51.92;20.05;;;;;;;19.95;87.08;100692.63;5002559;28;20045;-64
2021/07/17 07:19:50;;;;;;;45.40;20.58;;;;;;;19.89;86.52;100696.97;4997718;28;20460;-62
2021/07/17 07:22:17;;;;;;;53.47;21.15;;;;;;;19.74;86.73;100698.88;5011693;28;20100;-64
2021/07/17 07:24:44;;;;;;;47.20;19.58;;;;;;;19.66;87.02;100696.31;5018472;28;20065;-64
2021/07/17 07:27:11;;;;;;;43.72;19.25;;;;;;;19.59;88.02;100700.81;5019580;28;20073;-63
2021/07/17 07:29:37;;;;;;;46.03;20.77;;;;;;;19.80;87.08;100707.16;5004603;28;20131;-63
2021/07/17 07:32:04;;;;;;;49.33;19.35;;;;;;;19.79;87.56;100702.75;5005569;28;20077;-64
2021/07/17 07:34:30;;;;;;;51.88;21.40;;;;;;;19.85;87.90;100701.09;4998759;28;20340;-64
2021/07/17 07:36:57;;;;;;;49.72;20.10;;;;;;;19.81;86.61;100708.00;5009117;28;20488;-65
2021/07/17 07:39:23;;;;;;;49.85;21.95;;;;;;;19.76;87.26;100702.25;5012238;28;20073;-64
2021/07/17 07:41:51;;;;;;;50.03;22.30;;;;;;;19.84;87.40;100704.88;5019477;28;20101;-64
2021/07/17 07:44:17;;;;;;;51.58;20.55;;;;;;;19.84;86.61;100710.31;5000947;28;20492;-66
2021/07/17 07:46:43;;;;;;;56.83;22.17;;;;;;;19.78;86.95;100708.38;4999370;28;20104;-67
2021/07/17 07:49:10;;;;;;;49.88;21.27;;;;;;;19.99;87.58;100700.19;4997440;28;20492;-64
2021/07/17 07:51:36;;;;;;;54.63;21.33;;;;;;;20.19;86.33;100697.69;4998017;28;20131;-63
2021/07/17 07:54:03;;;;;;;47.22;21.98;;;;;;;20.05;85.35;100713.06;4999716;28;20101;-65
2021/07/17 07:56:29;;;;;;;51.40;21.73;;;;;;;20.08;86.56;100709.94;5009834;28;20123;-63
2021/07/17 07:58:57;;;;;;;54.10;22.23;;;;;;;20.17;85.23;100702.47;5002379;28;20566;-65
2021/07/17 08:01:23;;;;;;;44.28;19.83;;;;;;;20.07;86.64;100713.69;4999136;28;20066;-65
2021/07/17 08:03:49;;;;;;;46.92;20.35;;;;;;;20.06;86.42;100720.19;4994914;28;20105;-65
2021/07/17 08:06:16;;;;;;;46.08;22.92;;;;;;;19.97;86.43;100707.72;4995292;28;20049;-63
2021/07/17 08:08:42;;;;;;;49.08;20.77;;;;;;;19.95;87.49;100719.88;5127088;23;20033;-65
2021/07/17 08:11:09;;;;;;;55.90;22.95;;;;;;;19.89;89.21;100718.78;5060288;28;20060;-64
2021/07/17 08:13:35;;;;;;;43.30;18.55;;;;;;;20.11;87.46;100736.78;5057258;28;20090;-66
2021/07/17 08:16:03;;;;;;;52.30;24.02;;;;;;;20.07;87.00;100719.16;5045096;28;20144;-66
2021/07/17 08:18:30;;;;;;;46.70;20.65;;;;;;;20.30;86.83;100729.00;5036311;28;20391;-61
2021/07/17 08:20:56;;;;;;;47.97;20.95;;;;;;;20.38;85.39;100727.00;5031319;28;20049;-65
2021/07/17 08:23:23;;;;;;;48.22;20.63;;;;;;;20.52;85.58;100719.81;5035144;28;20041;-63
2021/07/17 08:25:50;;;;;;;47.08;20.48;;;;;;;20.60;86.25;100724.25;5035692;28;20045;-64
2021/07/17 08:28:16;;;;;;;58.92;23.95;;;;;;;20.53;85.62;100724.22;5041234;28;20056;-65
2021/07/17 08:30:44;;;;;;;49.35;21.83;;;;;;;20.44;86.03;100725.38;5044857;28;20644;-66
2021/07/17 08:33:12;;;;;;;51.85;24.17;;;;;;;20.28;87.11;100729.22;5037723;28;20087;-65
2021/07/17 08:35:38;;;;;;;47.47;21.42;;;;;;;20.61;85.61;100737.72;5030661;28;20056;-65
2021/07/17 08:38:05;;;;;;;40.00;18.63;;;;;;;20.62;86.29;100733.94;5043045;28;20110;-66
2021/07/17 08:40:31;;;;;;;43.72;20.58;;;;;;;20.68;85.97;100733.13;5043556;28;20049;-66
2021/07/17 08:42:58;;;;;;;47.50;21.15;;;;;;;20.77;85.04;100738.44;5035577;28;20045;-61
2021/07/17 08:45:26;;;;;;;38.85;20.10;;;;;;;20.79;84.98;100739.94;5036485;28;20519;-66
2021/07/17 08:47:53;;;;;;;45.53;19.08;;;;;;;20.89;85.20;100736.84;5051263;28;20057;-62
2021/07/17 08:50:23;;;;;;;51.65;22.58;;;;;;;20.95;83.28;100738.78;5044236;28;20107;-66
2021/07/17 08:52:50;;;;;;;33.80;16.50;;;;;;;21.23;83.92;100741.47;5049061;28;20045;-68
2021/07/17 08:55:17;;;;;;;48.08;21.30;;;;;;;21.36;82.73;100746.19;5049191;28;20113;-62
2021/07/17 08:57:44;;;;;;;36.88;18.02;;;;;;;21.28;83.69;100739.00;5051865;28;20052;-66
2021/07/17 09:00:14;;;;;;;36.70;19.08;;;;;;;21.15;84.19;100749.81;5043032;28;20050;-66
2021/07/17 09:02:41;;;;;;;43.85;21.02;;;;;;;21.06;84.08;100751.00;5031152;28;20069;-67
2021/07/17 09:05:08;;;;;;;42.30;19.02;;;;;;;21.02;84.09;100745.13;5045331;28;20085;-66
2021/07/17 09:07:36;;;;;;;37.95;19.73;;;;;;;21.07;82.99;100742.63;5051662;28;20052;-64
2021/07/17 09:10:27;;;;;;;48.22;20.67;;;;;;;21.33;82.74;100743.88;5051306;28;20102;-66
2021/07/17 09:13:15;;;;;;;38.78;16.95;;;;;;;21.27;83.78;100740.06;5036175;28;20394;-64
2021/07/17 09:15:52;;;;;;;39.95;20.23;;;;;;;21.32;84.40;100739.47;5033836;28;20450;-64
2021/07/17 09:18:25;;;;;;;47.17;20.83;;;;;;;21.22;82.61;100746.09;5037258;28;20499;-66
2021/07/17 09:20:56;;;;;;;40.05;18.27;;;;;;;21.20;84.81;100741.88;5040514;28;20049;-64
2021/07/17 09:23:26;;;;;;;45.10;20.75;;;;;;;21.10;84.73;100735.94;5039771;28;20042;-65
2021/07/17 09:25:52;;;;;;;44.85;21.00;;;;;;;21.25;85.14;100743.00;5033344;28;20507;-63
2021/07/17 09:28:21;;;;;;;41.83;20.88;;;;;;;21.56;83.40;100741.69;5029656;28;20495;-66
2021/07/17 09:30:48;;;;;;;46.42;18.45;;;;;;;21.67;83.35;100738.34;5032883;28;20041;-65
2021/07/17 09:33:16;;;;;;;45.70;20.85;;;;;;;21.49;83.17;100743.53;5032161;28;20399;-64
2021/07/17 09:35:46;;;;;;;43.25;19.80;;;;;;;21.29;82.66;100733.34;5032442;28;20041;-64
2021/07/17 09:38:13;;;;;;;43.97;22.45;;;;;;;21.29;84.19;100736.06;5046427;28;20048;-63
2021/07/17 09:40:49;;;;;;;48.42;21.17;;;;;;;21.43;84.21;100744.31;5049164;28;20045;-66
2021/07/17 09:43:30;;;;;;;43.90;20.67;;;;;;;21.58;83.62;100732.22;5038899;28;20037;-65
2021/07/17 09:45:57;;;;;;;42.95;20.20;;;;;;;22.03;82.99;100737.19;5037767;28;20084;-69
2021/07/17 09:48:26;;;;;;;36.17;17.38;;;;;;;22.75;80.19;100729.06;5037078;28;20288;-66
2021/07/17 09:50:54;;;;;;;39.20;20.40;;;;;;;22.91;79.23;100727.81;5046860;28;20057;-66
2021/07/17 09:53:41;;;;;;;45.78;20.10;;;;;;;22.89;76.98;100723.59;5033337;28;20491;-64
2021/07/17 09:56:10;;;;;;;38.38;18.30;;;;;;;23.02;78.49;100726.31;5028590;28;20368;-64
2021/07/17 09:58:38;;;;;;;33.03;14.88;;;;;;;23.64;76.81;100716.63;5036568;28;20049;-65
2021/07/17 10:01:20;;;;;;;31.38;15.18;;;;;;;24.05;75.87;100716.22;5038585;28;20125;-63
2021/07/17 10:03:48;;;;;;;29.25;15.07;;;;;;;24.71;72.11;100715.69;5033037;28;20072;-65
2021/07/17 10:06:45;;;;;;;26.25;15.38;;;;;;;25.17;nan;100708.91;5029936;28;20408;-61
2021/07/17 10:09:29;;;;;;;27.80;13.32;;;;;;;25.51;67.83;100707.44;4997642;28;20146;-65
2021/07/17 10:12:02;;;;;;;31.30;15.32;;;;;;;25.48;66.72;100709.81;5030637;28;20492;-66
2021/07/17 10:14:31;;;;;;;29.67;14.07;;;;;;;25.05;69.52;100711.56;5034473;28;20053;-67
2021/07/17 10:16:59;;;;;;;24.30;13.15;;;;;;;25.04;68.75;100709.06;5037088;28;20094;-64
2021/07/17 10:19:26;;;;;;;25.58;14.32;;;;;;;24.71;68.85;100703.88;5028702;28;20538;-65
2021/07/17 10:21:54;;;;;;;25.45;13.50;;;;;;;24.55;71.01;100701.72;5033560;28;20114;-64
2021/07/17 10:24:21;;;;;;;22.35;12.75;;;;;;;24.83;68.85;100696.56;5035592;28;20046;-66
2021/07/17 10:26:51;;;;;;;25.83;14.73;;;;;;;24.86;68.44;100700.75;5032595;28;20044;-65
2021/07/17 10:29:19;;;;;;;19.13;12.23;;;;;;;25.20;67.07;100691.97;5038684;28;20127;-63
2021/07/17 10:31:47;;;;;;;22.67;12.82;;;;;;;25.39;67.22;100687.31;5032913;28;20450;-61
2021/07/17 10:34:15;;;;;;;22.73;12.70;;;;;;;25.51;67.04;100692.88;5028765;28;20039;-65
2021/07/17 10:36:47;;;;;;;24.25;13.90;;;;;;;25.13;67.50;100691.22;5041238;28;20041;-64
2021/07/17 10:39:15;;;;;;;25.17;14.65;;;;;;;24.78;69.13;100689.03;5029185;28;22812;-64
2021/07/17 10:41:45;;;;;;;21.40;13.05;;;;;;;25.12;68.08;100683.22;5028008;28;20076;-62
2021/07/17 10:44:11;;;;;;;24.73;14.52;;;;;;;25.19;68.65;100684.81;5042459;28;20098;-64
2021/07/17 10:46:41;;;;;;;21.50;14.35;;;;;;;25.12;68.51;100672.22;5036694;28;20049;-63
2021/07/17 10:49:09;;;;;;;23.10;13.85;;;;;;;25.38;68.40;100671.06;5041686;28;20084;-60
2021/07/17 10:51:37;;;;;;;21.77;14.48;;;;;;;25.43;69.04;100668.44;5041627;28;20103;-64
2021/07/17 10:54:08;;;;;;;29.23;13.15;;;;;;;25.62;67.75;100670.09;5040114;28;20081;-65
2021/07/17 10:56:44;;;;;;;21.35;13.15;;;;;;;25.69;68.30;100661.75;5045699;28;20461;-66
2021/07/17 10:59:42;;;;;;;18.77;14.18;;;;;;;25.58;66.73;100666.16;5030119;28;20060;-60
2021/07/17 11:02:11;;;;;;;22.83;13.88;;;;;;;25.64;67.73;100659.72;5027926;28;20049;-63
2021/07/17 11:04:40;;;;;;;20.40;13.73;;;;;;;26.01;65.53;100662.38;5038221;28;20057;-65
2021/07/17 11:07:42;;;;;;;20.23;13.40;;;;;;;25.88;65.74;100664.25;5045184;28;20076;-66
2021/07/17 11:10:20;;;;;;;21.10;13.70;;;;;;;26.06;64.80;100657.00;5033869;28;20423;-66
2021/07/17 11:12:58;;;;;;;17.60;12.77;;;;;;;26.06;65.23;100662.50;5043422;28;20047;-65
2021/07/17 11:15:36;;;;;;;18.05;13.88;;;;;;;26.48;64.14;100669.66;5028134;28;20057;-62